Time;durP1;ratioP1;P1;durP2;ratioP2;P2;SDS_P1;SDS_P2;PMS_P1;PMS_P2;Temp;Humidity;BMP_temperature;BMP_pressure;BME280_temperature;BME280_humidity;BME280_pressure;Samples;Min_cycle;Max_cycle;Signal;HPM_P1;HPM_P2
2023/09/25 00:01:47;;;;;;;3.45;2.33;;;;;;;;;;5012833;28;20278;-66
2023/09/25 00:04:12;;;;;;;3.35;1.90;;;;;;;;;;5010952;28;20278;-66
2023/09/25 00:06:37;;;;;;;3.20;1.95;;;;;;;;;;5012072;28;20171;-66
2023/09/25 00:09:03;;;;;;;5.32;2.28;;;;;;;;;;5008653;28;20182;-66
2023/09/25 00:11:28;;;;;;;3.30;2.15;;;;;;;;;;5007552;28;20187;-65
2023/09/25 00:13:53;;;;;;;4.82;2.05;;;;;;;;;;5013828;28;20253;-66
2023/09/25 00:16:18;;;;;;;2.60;2.10;;;;;;;;;;5011728;28;20254;-66
2023/09/25 00:18:44;;;;;;;2.05;1.85;;;;;;;;;;5011548;28;20646;-65
2023/09/25 00:21:09;;;;;;;2.40;2.05;;;;;;;;;;5011676;28;20203;-66
2023/09/25 00:23:34;;;;;;;3.35;2.45;;;;;;;;;;5036443;23;20228;-69
2023/09/25 00:26:00;;;;;;;5.47;2.05;;;;;;;;;;5053160;28;20189;-69
2023/09/25 00:28:27;;;;;;;5.45;2.45;;;;;;;;;;5046037;28;20188;-69
2023/09/25 00:30:52;;;;;;;3.50;2.63;;;;;;;;;;5049766;28;20699;-70
2023/09/25 00:33:17;;;;;;;2.53;2.10;;;;;;;;;;5032325;28;20305;-70
2023/09/25 00:35:42;;;;;;;3.08;2.35;;;;;;;;;;5026393;28;20200;-71
2023/09/25 00:38:07;;;;;;;4.25;2.45;;;;;;;;;;5030636;28;20223;-70
2023/09/25 00:40:33;;;;;;;5.93;2.53;;;;;;;;;;5030901;28;20217;-70
2023/09/25 00:42:59;;;;;;;5.50;1.77;;;;;;;;;;5031994;28;20187;-71
2023/09/25 00:45:24;;;;;;;2.92;2.63;;;;;;;;;;5029484;28;20174;-70
2023/09/25 00:47:50;;;;;;;3.25;2.55;;;;;;;;;;5024321;28;20183;-70
2023/09/25 00:50:16;;;;;;;2.97;2.30;;;;;;;;;;5030895;28;20188;-69
2023/09/25 00:52:42;;;;;;;3.50;2.20;;;;;;;;;;5031646;28;20273;-70
2023/09/25 00:55:08;;;;;;;2.70;2.40;;;;;;;;;;5031378;28;20193;-70
2023/09/25 00:57:37;;;;;;;3.30;2.50;;;;;;;;;;5032076;28;20174;-69
2023/09/25 01:00:03;;;;;;;4.38;2.78;;;;;;;;;;5030757;28;20692;-69
2023/09/25 01:02:31;;;;;;;2.38;2.10;;;;;;;;;;5030471;28;20192;-70
2023/09/25 01:04:58;;;;;;;5.93;2.00;;;;;;;;;;5027717;28;20692;-69
2023/09/25 01:07:23;;;;;;;3.53;2.03;;;;;;;;;;5029593;28;20186;-69
2023/09/25 01:10:09;;;;;;;3.60;2.63;;;;;;;;;;5029506;28;20194;-69
2023/09/25 01:12:35;;;;;;;5.30;2.35;;;;;;;;;;5029980;28;20206;-69
2023/09/25 01:15:01;;;;;;;4.32;2.25;;;;;;;;;;5041412;28;20318;-69
2023/09/25 01:17:27;;;;;;;3.53;2.35;;;;;;;;;;5031280;28;20170;-69
2023/09/25 01:19:52;;;;;;;5.20;2.10;;;;;;;;;;5029449;28;20174;-70
2023/09/25 01:22:18;;;;;;;5.68;2.70;;;;;;;;;;5031254;28;20174;-70
2023/09/25 01:24:43;;;;;;;3.15;2.20;;;;;;;;;;5031504;28;20202;-71
2023/09/25 01:27:09;;;;;;;4.13;2.33;;;;;;;;;;5031082;28;20240;-71
2023/09/25 01:29:34;;;;;;;4.35;2.15;;;;;;;;;;5029943;28;20178;-70
2023/09/25 01:31:59;;;;;;;5.32;2.38;;;;;;;;;;5031191;28;20186;-70
2023/09/25 01:34:24;;;;;;;3.67;2.17;;;;;;;;;;5031547;28;20202;-70
2023/09/25 01:36:50;;;;;;;3.53;2.30;;;;;;;;;;5032540;28;20178;-70
2023/09/25 01:39:15;;;;;;;2.83;2.50;;;;;;;;;;5043490;28;20611;-69
2023/09/25 01:41:41;;;;;;;5.97;1.98;;;;;;;;;;5029971;28;20198;-69
2023/09/25 01:44:06;;;;;;;2.78;2.38;;;;;;;;;;5031021;28;20244;-69
2023/09/25 01:46:31;;;;;;;3.90;2.47;;;;;;;;;;5031334;28;20177;-70
2023/09/25 01:48:56;;;;;;;3.38;2.35;;;;;;;;;;5031127;28;20185;-70
2023/09/25 01:51:22;;;;;;;5.93;2.03;;;;;;;;;;5031041;28;20183;-70
2023/09/25 01:53:50;;;;;;;3.53;2.50;;;;;;;;;;5030679;28;20641;-69
2023/09/25 01:56:15;;;;;;;3.63;2.53;;;;;;;;;;5032394;28;20193;-70
2023/09/25 01:58:42;;;;;;;5.43;2.35;;;;;;;;;;5031889;28;20174;-70
2023/09/25 02:01:07;;;;;;;3.00;2.00;;;;;;;;;;5029228;28;20206;-70
2023/09/25 02:03:32;;;;;;;5.15;2.38;;;;;;;;;;5029226;28;20723;-70
2023/09/25 02:05:57;;;;;;;2.97;2.00;;;;;;;;;;5026488;28;20166;-69
2023/09/25 02:08:23;;;;;;;4.05;2.60;;;;;;;;;;5030832;28;20237;-71
2023/09/25 02:10:48;;;;;;;2.63;1.75;;;;;;;;;;5031249;28;20237;-71
2023/09/25 02:13:13;;;;;;;5.13;2.65;;;;;;;;;;5030073;28;20269;-71
2023/09/25 02:15:39;;;;;;;3.35;2.22;;;;;;;;;;5031176;28;20192;-70
2023/09/25 02:18:08;;;;;;;3.17;2.10;;;;;;;;;;5031147;28;20182;-69
2023/09/25 02:20:33;;;;;;;3.03;2.15;;;;;;;;;;5032890;28;20182;-70
2023/09/25 02:22:59;;;;;;;2.88;1.80;;;;;;;;;;5030672;28;20573;-70
2023/09/25 02:25:24;;;;;;;4.68;2.10;;;;;;;;;;5040996;28;20299;-71
2023/09/25 02:27:49;;;;;;;3.28;1.92;;;;;;;;;;5034585;28;20197;-70
2023/09/25 02:30:14;;;;;;;1.58;1.38;;;;;;;;;;5035785;28;20672;-70
2023/09/25 02:32:43;;;;;;;2.65;2.10;;;;;;;;;;5035075;28;20185;-69
2023/09/25 02:35:09;;;;;;;4.35;3.00;;;;;;;;;;5030678;28;20190;-69
2023/09/25 02:37:35;;;;;;;2.15;1.88;;;;;;;;;;5034121;28;20175;-70
2023/09/25 02:40:00;;;;;;;5.15;2.53;;;;;;;;;;5033248;28;20198;-70
2023/09/25 02:42:25;;;;;;;3.78;1.90;;;;;;;;;;5033976;28;20249;-69
2023/09/25 02:44:51;;;;;;;3.85;2.38;;;;;;;;;;5047494;28;20202;-70
2023/09/25 02:47:17;;;;;;;4.53;2.50;;;;;;;;;;5034719;28;20229;-69
2023/09/25 02:49:42;;;;;;;3.97;1.85;;;;;;;;;;5033293;28;20175;-69
2023/09/25 02:52:07;;;;;;;3.30;2.20;;;;;;;;;;5031456;28;20175;-69
2023/09/25 02:54:32;;;;;;;2.58;2.15;;;;;;;;;;5033849;28;20198;-69
2023/09/25 02:56:58;;;;;;;2.95;2.08;;;;;;;;;;5033204;28;20198;-69
2023/09/25 02:59:23;;;;;;;3.28;2.17;;;;;;;;;;5045946;28;20265;-70
2023/09/25 03:01:48;;;;;;;6.20;2.25;;;;;;;;;;5034468;28;20275;-70
2023/09/25 03:04:13;;;;;;;3.72;2.03;;;;;;;;;;5031607;28;20706;-70
2023/09/25 03:06:38;;;;;;;3.28;1.90;;;;;;;;;;5030191;28;20926;-69
2023/09/25 03:09:04;;;;;;;5.47;2.50;;;;;;;;;;5026760;28;20178;-70
2023/09/25 03:11:31;;;;;;;3.25;2.20;;;;;;;;;;5032150;28;20754;-70
2023/09/25 03:13:57;;;;;;;3.08;1.90;;;;;;;;;;5033325;28;20202;-69
2023/09/25 03:16:22;;;;;;;3.28;1.83;;;;;;;;;;5033297;28;20208;-71
2023/09/25 03:18:47;;;;;;;3.45;2.55;;;;;;;;;;5032873;28;20185;-71
2023/09/25 03:21:13;;;;;;;2.78;1.90;;;;;;;;;;5031644;28;20202;-71
2023/09/25 03:23:39;;;;;;;3.67;2.88;;;;;;;;;;5025126;28;20205;-68
2023/09/25 03:26:12;;;;;;;2.45;1.88;;;;;;;;;;5033533;28;20633;-71
2023/09/25 03:28:37;;;;;;;2.92;1.90;;;;;;;;;;5034569;28;20261;-70
2023/09/25 03:31:03;;;;;;;5.18;2.03;;;;;;;;;;5033857;28;20205;-70
2023/09/25 03:33:28;;;;;;;3.00;2.10;;;;;;;;;;5033528;28;20194;-70
2023/09/25 03:35:53;;;;;;;3.78;2.55;;;;;;;;;;5032738;28;20185;-70
2023/09/25 03:38:18;;;;;;;4.30;2.22;;;;;;;;;;5033429;28;20186;-70
2023/09/25 03:40:43;;;;;;;3.83;2.17;;;;;;;;;;5033738;28;20225;-70
2023/09/25 03:43:09;;;;;;;3.05;2.05;;;;;;;;;;5033905;28;20202;-70
2023/09/25 03:45:34;;;;;;;3.97;2.20;;;;;;;;;;5033659;28;20313;-70
2023/09/25 03:47:59;;;;;;;4.22;2.22;;;;;;;;;;5032984;28;20189;-70
2023/09/25 03:50:24;;;;;;;3.72;2.03;;;;;;;;;;5032104;28;20216;-70
2023/09/25 03:52:49;;;;;;;3.72;2.47;;;;;;;;;;5031518;28;20232;-70
2023/09/25 03:55:15;;;;;;;3.70;2.08;;;;;;;;;;5047473;28;20175;-71
2023/09/25 03:57:40;;;;;;;4.07;1.83;;;;;;;;;;5032142;28;20208;-71
2023/09/25 04:00:06;;;;;;;6.70;1.95;;;;;;;;;;5032824;28;20663;-70
2023/09/25 04:02:31;;;;;;;3.85;2.03;;;;;;;;;;5031062;28;20177;-70
2023/09/25 04:04:57;;;;;;;2.70;1.80;;;;;;;;;;5031969;28;20199;-71
2023/09/25 04:07:22;;;;;;;5.72;2.25;;;;;;;;;;5026886;28;20174;-70
2023/09/25 04:09:47;;;;;;;2.97;2.20;;;;;;;;;;5032784;28;20174;-71
2023/09/25 04:12:14;;;;;;;2.85;1.88;;;;;;;;;;5033974;28;20177;-70
2023/09/25 04:14:41;;;;;;;3.15;2.10;;;;;;;;;;5027353;28;20202;-71
2023/09/25 04:17:08;;;;;;;5.70;2.13;;;;;;;;;;5033407;28;20217;-69
2023/09/25 04:19:33;;;;;;;3.17;1.70;;;;;;;;;;5032770;28;20187;-70
2023/09/25 04:21:59;;;;;;;4.45;2.17;;;;;;;;;;5040261;28;20603;-69
2023/09/25 04:24:25;;;;;;;4.63;2.15;;;;;;;;;;5032509;28;20751;-70
2023/09/25 04:26:50;;;;;;;2.25;2.05;;;;;;;;;;5033868;28;20214;-71
2023/09/25 04:29:17;;;;;;;4.38;2.20;;;;;;;;;;5031008;28;20247;-70
2023/09/25 04:31:44;;;;;;;2.88;1.90;;;;;;;;;;5033056;28;20170;-70
2023/09/25 04:34:10;;;;;;;2.60;1.75;;;;;;;;;;5032313;28;20206;-69
2023/09/25 04:36:35;;;;;;;2.85;2.08;;;;;;;;;;5038253;28;20186;-69
2023/09/25 04:39:00;;;;;;;5.05;2.40;;;;;;;;;;5026854;28;20800;-69
2023/09/25 04:41:26;;;;;;;5.50;2.50;;;;;;;;;;5030538;28;20293;-69
2023/09/25 04:43:52;;;;;;;3.88;2.05;;;;;;;;;;5030102;28;20599;-70
2023/09/25 04:46:18;;;;;;;2.92;2.10;;;;;;;;;;5046507;28;20221;-70
2023/09/25 04:48:43;;;;;;;3.35;2.17;;;;;;;;;;5030985;28;20240;-71
2023/09/25 04:51:08;;;;;;;3.92;2.30;;;;;;;;;;5031064;28;20181;-69
2023/09/25 04:53:34;;;;;;;4.03;2.05;;;;;;;;;;5030987;28;20194;-69
2023/09/25 04:55:59;;;;;;;3.78;1.80;;;;;;;;;;5029963;28;20823;-69
2023/09/25 04:58:24;;;;;;;4.72;3.13;;;;;;;;;;5031978;28;20174;-71
2023/09/25 05:00:50;;;;;;;3.17;1.88;;;;;;;;;;5031933;28;20182;-70
2023/09/25 05:03:15;;;;;;;3.28;2.00;;;;;;;;;;5031101;28;20575;-70
2023/09/25 05:05:40;;;;;;;2.53;1.70;;;;;;;;;;5028764;28;20178;-69
2023/09/25 05:08:06;;;;;;;4.75;1.90;;;;;;;;;;5025137;28;20200;-70
2023/09/25 05:10:31;;;;;;;5.47;1.77;;;;;;;;;;5032188;28;20189;-70
2023/09/25 05:12:56;;;;;;;2.88;2.30;;;;;;;;;;5030090;28;20178;-69
2023/09/25 05:15:22;;;;;;;2.40;1.83;;;;;;;;;;5031298;28;20176;-70
2023/09/25 05:17:47;;;;;;;3.17;1.98;;;;;;;;;;5034628;28;20183;-70
2023/09/25 05:20:18;;;;;;;3.78;2.05;;;;;;;;;;5031647;28;20197;-70
2023/09/25 05:22:44;;;;;;;3.97;2.20;;;;;;;;;;5029481;28;20166;-70
2023/09/25 05:25:10;;;;;;;3.17;2.13;;;;;;;;;;5029295;28;20183;-69
2023/09/25 05:27:36;;;;;;;4.88;1.90;;;;;;;;;;5028967;28;20170;-70
2023/09/25 05:30:05;;;;;;;2.92;1.95;;;;;;;;;;5025594;28;20884;-70
2023/09/25 05:32:31;;;;;;;2.30;1.70;;;;;;;;;;5026744;28;20190;-70
2023/09/25 05:34:57;;;;;;;6.18;2.33;;;;;;;;;;5029335;28;20654;-70
2023/09/25 05:37:22;;;;;;;5.40;2.53;;;;;;;;;;5029899;28;20211;-70
2023/09/25 05:39:47;;;;;;;5.80;2.10;;;;;;;;;;5033024;28;20197;-70
2023/09/25 05:42:12;;;;;;;3.60;2.30;;;;;;;;;;5030189;28;20595;-70
2023/09/25 05:44:37;;;;;;;4.47;2.50;;;;;;;;;;5029836;28;20213;-70
2023/09/25 05:47:02;;;;;;;2.85;1.80;;;;;;;;;;5030931;28;20190;-70
2023/09/25 05:49:28;;;;;;;3.80;2.20;;;;;;;;;;5025857;28;20248;-70
2023/09/25 05:51:53;;;;;;;6.43;2.33;;;;;;;;;;5031678;28;20198;-71
2023/09/25 05:54:19;;;;;;;3.92;2.08;;;;;;;;;;5031357;28;20201;-70
2023/09/25 05:56:44;;;;;;;5.05;2.00;;;;;;;;;;5032559;28;20625;-70
2023/09/25 05:59:10;;;;;;;2.67;1.98;;;;;;;;;;5031171;28;20269;-70
2023/09/25 06:01:35;;;;;;;4.32;2.60;;;;;;;;;;5023940;28;20442;-71
2023/09/25 06:04:00;;;;;;;3.55;1.90;;;;;;;;;;5031412;28;20229;-70
2023/09/25 06:06:25;;;;;;;3.90;1.88;;;;;;;;;;5034412;28;20182;-70
2023/09/25 06:08:51;;;;;;;3.10;1.80;;;;;;;;;;5034685;28;20170;-70
2023/09/25 06:11:17;;;;;;;3.55;1.88;;;;;;;;;;5033811;28;20186;-70
2023/09/25 06:13:42;;;;;;;3.40;1.70;;;;;;;;;;5033744;28;20198;-71
2023/09/25 06:16:09;;;;;;;3.15;2.20;;;;;;;;;;5033799;28;20650;-71
2023/09/25 06:18:35;;;;;;;3.78;1.88;;;;;;;;;;5034913;28;20183;-70
2023/09/25 06:21:01;;;;;;;2.72;1.90;;;;;;;;;;5031982;28;20246;-70
2023/09/25 06:23:26;;;;;;;3.40;2.20;;;;;;;;;;5051632;23;20249;-67
2023/09/25 06:25:53;;;;;;;2.25;1.80;;;;;;;;;;5032733;28;20186;-68
2023/09/25 06:28:23;;;;;;;4.40;2.15;;;;;;;;;;5032084;28;20182;-65
2023/09/25 06:30:48;;;;;;;3.53;1.98;;;;;;;;;;5029283;28;20190;-66
2023/09/25 06:33:14;;;;;;;4.30;1.65;;;;;;;;;;5027923;28;20182;-65
2023/09/25 06:35:39;;;;;;;3.03;1.90;;;;;;;;;;5011584;28;20198;-65
2023/09/25 06:38:04;;;;;;;4.60;2.17;;;;;;;;;;5012845;28;20174;-65
2023/09/25 06:40:29;;;;;;;1.83;1.60;;;;;;;;;;5010795;28;20226;-65
2023/09/25 06:42:54;;;;;;;2.60;1.92;;;;;;;;;;5012073;28;20187;-65
2023/09/25 06:45:21;;;;;;;3.22;2.05;;;;;;;;;;5011793;28;20199;-66
2023/09/25 06:47:47;;;;;;;5.25;2.20;;;;;;;;;;5012106;28;20171;-67
2023/09/25 06:50:12;;;;;;;4.07;2.28;;;;;;;;;;5011962;28;20556;-66
2023/09/25 06:52:37;;;;;;;6.32;2.17;;;;;;;;;;5007457;28;20190;-67
2023/09/25 06:55:03;;;;;;;3.80;2.15;;;;;;;;;;5010277;28;20222;-66
2023/09/25 06:57:28;;;;;;;2.25;1.48;;;;;;;;;;5010474;28;20502;-67
2023/09/25 06:59:53;;;;;;;3.53;1.60;;;;;;;;;;5010695;28;20179;-66
2023/09/25 07:02:20;;;;;;;3.40;1.90;;;;;;;;;;5007881;28;20206;-66
2023/09/25 07:04:47;;;;;;;2.67;1.50;;;;;;;;;;5010031;28;20209;-66
2023/09/25 07:07:12;;;;;;;7.63;2.03;;;;;;;;;;5010051;28;20179;-66
2023/09/25 07:09:37;;;;;;;6.45;2.78;;;;;;;;;;5010544;28;20550;-67
2023/09/25 07:12:03;;;;;;;5.40;2.67;;;;;;;;;;5010388;28;20236;-66
2023/09/25 07:14:28;;;;;;;7.90;4.13;;;;;;;;;;5011170;28;20578;-65
2023/09/25 07:16:53;;;;;;;3.92;2.53;;;;;;;;;;5010408;28;20179;-66
2023/09/25 07:19:18;;;;;;;3.60;2.50;;;;;;;;;;5011540;28;20646;-65
2023/09/25 07:21:44;;;;;;;2.97;2.10;;;;;;;;;;5012021;28;20195;-65
2023/09/25 07:24:09;;;;;;;4.72;1.70;;;;;;;;;;5010369;28;20314;-66
2023/09/25 07:26:34;;;;;;;3.67;1.65;;;;;;;;;;5008967;28;20400;-66
2023/09/25 07:28:59;;;;;;;1.55;1.40;;;;;;;;;;5012204;28;20190;-66
2023/09/25 07:31:26;;;;;;;5.18;2.00;;;;;;;;;;5015160;28;20179;-66
2023/09/25 07:33:54;;;;;;;3.72;2.17;;;;;;;;;;5011187;28;20253;-65
2023/09/25 07:36:20;;;;;;;2.63;1.30;;;;;;;;;;5010611;28;20175;-66
2023/09/25 07:38:49;;;;;;;2.10;1.60;;;;;;;;;;5009000;28;20171;-66
2023/09/25 07:41:14;;;;;;;2.28;1.60;;;;;;;;;;5007649;28;20206;-66
2023/09/25 07:43:40;;;;;;;2.47;1.80;;;;;;;;;;5003246;28;20194;-67
2023/09/25 07:46:05;;;;;;;5.85;1.73;;;;;;;;;;5003190;28;20920;-66
2023/09/25 07:48:30;;;;;;;3.50;1.65;;;;;;;;;;5005711;28;20225;-66
2023/09/25 07:50:58;;;;;;;4.35;1.75;;;;;;;;;;5007060;28;20179;-66
2023/09/25 07:53:23;;;;;;;3.55;1.80;;;;;;;;;;5005467;28;20302;-65
2023/09/25 07:55:49;;;;;;;3.05;1.92;;;;;;;;;;5022633;28;20188;-67
2023/09/25 07:58:14;;;;;;;4.47;2.55;;;;;;;;;;5013071;28;20289;-65
2023/09/25 08:00:44;;;;;;;2.70;1.85;;;;;;;;;;5011859;28;20289;-66
2023/09/25 08:03:09;;;;;;;2.85;1.40;;;;;;;;;;5009198;28;20217;-66
2023/09/25 08:05:35;;;;;;;2.53;1.70;;;;;;;;;;5005662;28;20576;-66
2023/09/25 08:08:01;;;;;;;3.38;1.88;;;;;;;;;;5009409;28;20167;-65
2023/09/25 08:10:26;;;;;;;4.25;1.73;;;;;;;;;;5011096;28;20185;-66
2023/09/25 08:12:51;;;;;;;2.67;1.80;;;;;;;;;;5007442;28;20193;-66
2023/09/25 08:15:17;;;;;;;2.00;1.70;;;;;;;;;;5008798;28;20207;-67
2023/09/25 08:17:47;;;;;;;4.65;2.15;;;;;;;;;;5009720;28;20590;-66
2023/09/25 08:20:22;;;;;;;3.55;1.33;;;;;;;;;;5003699;28;20207;-66
2023/09/25 08:22:51;;;;;;;4.00;1.67;;;;;;;;;;5011549;28;20178;-67
2023/09/25 08:25:16;;;;;;;2.90;1.70;;;;;;;;;;5012597;28;20218;-66
2023/09/25 08:27:42;;;;;;;5.00;1.58;;;;;;;;;;5009350;28;20652;-66
2023/09/25 08:30:08;;;;;;;2.40;1.60;;;;;;;;;;5010339;28;20183;-66
2023/09/25 08:32:33;;;;;;;3.67;1.58;;;;;;;;;;5008115;28;20221;-66
2023/09/25 08:34:59;;;;;;;2.40;1.60;;;;;;;;;;5009792;28;20198;-66
2023/09/25 08:37:24;;;;;;;3.00;1.55;;;;;;;;;;5008444;28;20293;-66
2023/09/25 08:39:51;;;;;;;3.15;1.50;;;;;;;;;;5010011;28;20171;-66
2023/09/25 08:42:17;;;;;;;8.88;2.67;;;;;;;;;;5010704;28;20214;-66
2023/09/25 08:44:42;;;;;;;2.92;1.80;;;;;;;;;;5011073;28;20187;-66
2023/09/25 08:47:07;;;;;;;3.40;1.38;;;;;;;;;;5011504;28;20171;-66
2023/09/25 08:49:34;;;;;;;2.85;1.80;;;;;;;;;;5010446;28;20170;-65
2023/09/25 08:52:00;;;;;;;5.20;1.80;;;;;;;;;;5011360;28;20620;-65
2023/09/25 08:54:25;;;;;;;2.40;1.60;;;;;;;;;;5011301;28;20328;-66
2023/09/25 08:56:50;;;;;;;3.38;1.73;;;;;;;;;;5011475;28;20205;-66
2023/09/25 08:59:16;;;;;;;4.57;1.60;;;;;;;;;;5010318;28;20220;-66
2023/09/25 09:01:42;;;;;;;4.40;1.40;;;;;;;;;;5010200;28;20203;-66
2023/09/25 09:04:07;;;;;;;2.50;1.70;;;;;;;;;;5009461;28;20253;-65
2023/09/25 09:06:32;;;;;;;4.88;1.80;;;;;;;;;;5009792;28;20179;-66
2023/09/25 09:08:57;;;;;;;2.75;1.58;;;;;;;;;;5010986;28;20233;-66
2023/09/25 09:11:23;;;;;;;3.28;1.60;;;;;;;;;;5011164;28;20171;-66
2023/09/25 09:13:48;;;;;;;5.97;1.58;;;;;;;;;;5010671;28;20195;-66
2023/09/25 09:16:14;;;;;;;3.25;1.52;;;;;;;;;;5010300;28;20823;-66
2023/09/25 09:18:40;;;;;;;2.65;1.48;;;;;;;;;;5010978;28;20319;-66
2023/09/25 09:21:07;;;;;;;3.55;2.00;;;;;;;;;;5011918;28;20669;-66
2023/09/25 09:23:41;;;;;;;2.47;1.33;;;;;;;;;;5013245;28;20689;-66
2023/09/25 09:26:16;;;;;;;2.83;1.60;;;;;;;;;;5006598;28;20403;-67
2023/09/25 09:28:43;;;;;;;2.88;1.92;;;;;;;;;;5007803;28;20174;-66
2023/09/25 09:31:08;;;;;;;3.63;1.60;;;;;;;;;;5006841;28;20183;-66
2023/09/25 09:33:37;;;;;;;6.57;1.55;;;;;;;;;;5010993;28;20253;-66
2023/09/25 09:36:02;;;;;;;4.68;1.60;;;;;;;;;;5014188;28;20258;-66
2023/09/25 09:38:28;;;;;;;2.40;1.58;;;;;;;;;;5015225;28;20258;-66
2023/09/25 09:40:54;;;;;;;1.95;1.40;;;;;;;;;;5013792;28;20230;-66
2023/09/25 09:43:20;;;;;;;4.40;1.88;;;;;;;;;;5015103;28;20202;-67
2023/09/25 09:45:47;;;;;;;2.78;1.67;;;;;;;;;;5014619;28;20530;-66
2023/09/25 09:48:13;;;;;;;5.97;2.33;;;;;;;;;;5018320;28;20442;-66
2023/09/25 09:50:39;;;;;;;4.20;1.58;;;;;;;;;;5013080;28;20179;-67
2023/09/25 09:53:05;;;;;;;2.03;1.75;;;;;;;;;;5014267;28;20219;-65
2023/09/25 09:55:31;;;;;;;2.35;1.70;;;;;;;;;;5014526;28;20650;-65
2023/09/25 09:57:56;;;;;;;6.18;2.22;;;;;;;;;;5014646;28;20332;-65
2023/09/25 10:00:23;;;;;;;4.90;2.05;;;;;;;;;;5013308;28;20688;-65
2023/09/25 10:02:49;;;;;;;2.40;1.27;;;;;;;;;;5014078;28;20179;-66
2023/09/25 10:05:14;;;;;;;4.80;1.58;;;;;;;;;;5013611;28;20203;-66
2023/09/25 10:07:58;;;;;;;4.68;2.33;;;;;;;;;;5009949;28;20175;-66
2023/09/25 10:10:24;;;;;;;4.50;1.70;;;;;;;;;;5010155;28;20246;-66
2023/09/25 10:12:50;;;;;;;4.32;1.77;;;;;;;;;;5013181;28;20186;-65
2023/09/25 10:15:27;;;;;;;2.40;1.30;;;;;;;;;;5013154;28;20579;-66
2023/09/25 10:17:53;;;;;;;6.32;1.90;;;;;;;;;;5013314;28;20183;-66
2023/09/25 10:20:28;;;;;;;2.10;1.50;;;;;;;;;;5013252;28;20561;-65
2023/09/25 10:22:56;;;;;;;3.13;1.83;;;;;;;;;;5009495;28;20175;-66
2023/09/25 10:25:23;;;;;;;4.85;1.63;;;;;;;;;;5012521;28;20402;-65
2023/09/25 10:27:49;;;;;;;3.90;1.67;;;;;;;;;;5011706;28;20214;-65
2023/09/25 10:30:18;;;;;;;4.65;1.60;;;;;;;;;;5011228;28;20578;-66
2023/09/25 10:32:51;;;;;;;2.72;1.65;;;;;;;;;;5012397;28;20207;-65
2023/09/25 10:35:34;;;;;;;3.35;1.65;;;;;;;;;;5011081;28;20278;-65
2023/09/25 10:38:19;;;;;;;3.25;2.08;;;;;;;;;;5011637;28;20190;-67
2023/09/25 10:40:46;;;;;;;2.42;1.63;;;;;;;;;;5006413;28;20286;-66
2023/09/25 10:43:11;;;;;;;2.83;1.85;;;;;;;;;;5015057;28;20175;-66
2023/09/25 10:45:37;;;;;;;3.00;1.80;;;;;;;;;;5012585;28;20179;-66
2023/09/25 10:48:02;;;;;;;3.42;1.63;;;;;;;;;;5011981;28;20174;-66
2023/09/25 10:50:28;;;;;;;6.35;2.20;;;;;;;;;;5011640;28;20662;-65
2023/09/25 10:52:53;;;;;;;2.97;1.58;;;;;;;;;;5013296;28;20668;-66
2023/09/25 10:55:20;;;;;;;3.53;1.80;;;;;;;;;;5010567;28;20191;-66
2023/09/25 10:57:45;;;;;;;3.60;2.20;;;;;;;;;;5012224;28;20256;-65
2023/09/25 11:00:14;;;;;;;3.17;1.70;;;;;;;;;;5013389;28;20194;-66
2023/09/25 11:02:40;;;;;;;4.72;1.73;;;;;;;;;;5013347;28;20167;-66
2023/09/25 11:05:07;;;;;;;4.15;1.50;;;;;;;;;;5010877;28;20210;-66
2023/09/25 11:07:35;;;;;;;3.45;1.30;;;;;;;;;;5008999;28;20179;-65
2023/09/25 11:10:01;;;;;;;2.38;1.50;;;;;;;;;;5013043;28;20183;-64
2023/09/25 11:12:26;;;;;;;3.85;1.80;;;;;;;;;;5011675;28;20175;-66
2023/09/25 11:14:51;;;;;;;2.25;1.60;;;;;;;;;;5012205;28;20209;-66
2023/09/25 11:17:17;;;;;;;2.17;1.45;;;;;;;;;;5012677;28;20171;-65
2023/09/25 11:19:45;;;;;;;4.00;1.98;;;;;;;;;;5013027;28;20593;-65
2023/09/25 11:22:11;;;;;;;2.53;1.48;;;;;;;;;;5012677;28;20697;-65
2023/09/25 11:24:36;;;;;;;3.72;1.73;;;;;;;;;;5012552;28;20297;-67
2023/09/25 11:27:07;;;;;;;3.25;1.77;;;;;;;;;;5010633;28;20266;-67
2023/09/25 11:29:32;;;;;;;3.25;1.63;;;;;;;;;;5010726;28;20171;-66
2023/09/25 11:31:58;;;;;;;3.83;1.90;;;;;;;;;;5013658;28;20240;-66
2023/09/25 11:34:23;;;;;;;4.05;1.52;;;;;;;;;;5010204;28;20985;-67
2023/09/25 11:36:48;;;;;;;4.80;1.90;;;;;;;;;;5009450;28;20270;-67
2023/09/25 11:39:14;;;;;;;3.43;1.80;;;;;;;;;;5006725;28;20432;-66
2023/09/25 11:41:40;;;;;;;2.63;1.83;;;;;;;;;;5012392;28;20525;-66
2023/09/25 11:44:06;;;;;;;5.35;2.50;;;;;;;;;;5012488;28;20199;-66
2023/09/25 11:46:31;;;;;;;2.75;1.98;;;;;;;;;;5012837;28;20171;-66
2023/09/25 11:48:56;;;;;;;2.10;1.30;;;;;;;;;;5011857;28;20659;-66
2023/09/25 11:51:21;;;;;;;2.93;2.07;;;;;;;;;;5014073;28;20175;-65
2023/09/25 11:53:48;;;;;;;2.38;1.48;;;;;;;;;;5010000;28;20436;-65
2023/09/25 11:56:13;;;;;;;3.03;1.80;;;;;;;;;;5010856;28;20202;-65
2023/09/25 11:58:39;;;;;;;2.55;1.50;;;;;;;;;;5009316;28;20183;-65
2023/09/25 12:01:04;;;;;;;4.55;1.80;;;;;;;;;;5011939;28;20215;-66
2023/09/25 12:03:38;;;;;;;5.28;1.92;;;;;;;;;;5009853;28;20707;-65
2023/09/25 12:06:03;;;;;;;3.35;1.80;;;;;;;;;;5007741;28;20187;-65
2023/09/25 12:08:28;;;;;;;2.78;1.10;;;;;;;;;;5007958;28;20602;-65
2023/09/25 12:10:55;;;;;;;2.60;1.47;;;;;;;;;;5011144;28;20202;-66
2023/09/25 12:13:20;;;;;;;2.70;1.40;;;;;;;;;;5013894;28;20440;-67
2023/09/25 12:15:46;;;;;;;3.70;1.75;;;;;;;;;;5014498;28;20673;-66
2023/09/25 12:18:11;;;;;;;3.72;1.30;;;;;;;;;;5010262;28;20305;-64
2023/09/25 12:20:36;;;;;;;3.10;1.53;;;;;;;;;;5012580;28;20286;-65
2023/09/25 12:23:02;;;;;;;2.97;1.70;;;;;;;;;;5011758;28;20408;-65
2023/09/25 12:25:27;;;;;;;3.88;1.50;;;;;;;;;;5067488;23;20585;-68
2023/09/25 12:27:52;;;;;;;4.35;1.90;;;;;;;;;;5050954;28;20182;-70
2023/09/25 12:30:18;;;;;;;3.05;1.70;;;;;;;;;;5050847;28;20173;-70
2023/09/25 12:32:45;;;;;;;2.85;1.83;;;;;;;;;;5050280;28;20563;-70
2023/09/25 12:35:15;;;;;;;2.60;1.55;;;;;;;;;;5030949;28;20590;-70
2023/09/25 12:37:40;;;;;;;2.65;1.77;;;;;;;;;;5031056;28;20166;-71
2023/09/25 12:40:06;;;;;;;2.25;1.67;;;;;;;;;;5032318;28;20178;-71
2023/09/25 12:42:32;;;;;;;3.78;1.55;;;;;;;;;;5033407;28;20277;-71
2023/09/25 12:44:58;;;;;;;4.03;1.75;;;;;;;;;;5032943;28;20248;-71
2023/09/25 12:47:26;;;;;;;2.28;1.77;;;;;;;;;;5032053;28;20182;-72
2023/09/25 12:49:52;;;;;;;4.97;1.65;;;;;;;;;;5032739;28;20182;-71
2023/09/25 12:52:17;;;;;;;3.03;1.40;;;;;;;;;;5032835;28;20177;-70
2023/09/25 12:54:42;;;;;;;5.68;2.10;;;;;;;;;;5033440;28;20624;-70
2023/09/25 12:57:08;;;;;;;2.67;1.77;;;;;;;;;;5034126;28;20182;-70
2023/09/25 12:59:33;;;;;;;5.78;2.25;;;;;;;;;;5031441;28;20731;-71
2023/09/25 13:01:59;;;;;;;3.72;2.00;;;;;;;;;;5032038;28;20202;-71
2023/09/25 13:04:24;;;;;;;3.65;2.55;;;;;;;;;;5033502;28;20212;-71
2023/09/25 13:06:51;;;;;;;4.50;1.83;;;;;;;;;;5030342;28;20185;-70
2023/09/25 13:09:17;;;;;;;6.18;2.40;;;;;;;;;;5027690;28;20186;-70
2023/09/25 13:11:44;;;;;;;5.35;2.13;;;;;;;;;;5027861;28;20182;-72
2023/09/25 13:14:09;;;;;;;4.95;2.08;;;;;;;;;;5040415;28;20583;-72
2023/09/25 13:16:35;;;;;;;3.70;2.50;;;;;;;;;;5031599;28;20191;-71
2023/09/25 13:19:00;;;;;;;4.45;2.13;;;;;;;;;;5030929;28;20289;-71
2023/09/25 13:21:26;;;;;;;4.32;1.63;;;;;;;;;;5032858;28;20206;-71
2023/09/25 13:23:53;;;;;;;5.32;2.17;;;;;;;;;;5032195;28;20305;-70
2023/09/25 13:26:19;;;;;;;4.30;2.38;;;;;;;;;;5030694;28;20178;-70
2023/09/25 13:28:44;;;;;;;4.63;1.92;;;;;;;;;;5033010;28;20232;-71
2023/09/25 13:31:09;;;;;;;3.43;1.97;;;;;;;;;;5032526;28;20184;-71
2023/09/25 13:33:34;;;;;;;4.85;2.67;;;;;;;;;;5032386;28;20427;-71
2023/09/25 13:36:00;;;;;;;4.50;2.33;;;;;;;;;;5029330;28;20328;-70
2023/09/25 13:38:25;;;;;;;3.83;2.00;;;;;;;;;;5032511;28;20472;-71
2023/09/25 13:40:50;;;;;;;3.50;2.30;;;;;;;;;;5033672;28;20207;-71
2023/09/25 13:43:15;;;;;;;3.43;1.57;;;;;;;;;;5032484;28;20192;-71
2023/09/25 13:45:41;;;;;;;4.13;2.13;;;;;;;;;;5030405;28;21018;-71
2023/09/25 13:48:06;;;;;;;3.70;2.07;;;;;;;;;;5032830;28;20729;-70
2023/09/25 13:50:32;;;;;;;3.67;2.23;;;;;;;;;;5032935;28;20495;-69
2023/09/25 13:52:57;;;;;;;3.90;2.05;;;;;;;;;;5032458;28;20427;-69
2023/09/25 13:55:23;;;;;;;4.43;2.20;;;;;;;;;;5030453;28;20207;-70
2023/09/25 13:57:48;;;;;;;6.03;2.50;;;;;;;;;;5028809;28;20843;-70
2023/09/25 14:00:13;;;;;;;3.05;2.03;;;;;;;;;;5025807;28;20426;-70
2023/09/25 14:02:41;;;;;;;4.88;2.03;;;;;;;;;;5031870;28;20609;-70
2023/09/25 14:05:08;;;;;;;4.00;2.38;;;;;;;;;;5032178;28;20274;-71
2023/09/25 14:07:33;;;;;;;4.10;1.90;;;;;;;;;;5032565;28;20738;-70
2023/09/25 14:09:58;;;;;;;4.28;2.25;;;;;;;;;;5031499;28;20182;-70
2023/09/25 14:12:23;;;;;;;3.55;2.38;;;;;;;;;;5030982;28;20202;-70
2023/09/25 14:14:51;;;;;;;5.93;2.00;;;;;;;;;;5031048;28;20252;-70
2023/09/25 14:17:16;;;;;;;4.57;1.85;;;;;;;;;;5029566;28;20426;-70
2023/09/25 14:19:41;;;;;;;3.17;1.88;;;;;;;;;;5036207;28;20178;-70
2023/09/25 14:22:07;;;;;;;5.30;2.57;;;;;;;;;;5037721;28;20213;-69
2023/09/25 14:24:32;;;;;;;3.60;1.97;;;;;;;;;;5035609;28;20457;-70
2023/09/25 14:26:59;;;;;;;4.30;2.00;;;;;;;;;;5034696;28;20407;-70
2023/09/25 14:29:25;;;;;;;4.85;1.92;;;;;;;;;;5034511;28;20244;-70
2023/09/25 14:31:51;;;;;;;4.75;2.10;;;;;;;;;;5036107;28;20192;-70
2023/09/25 14:34:16;;;;;;;4.50;2.00;;;;;;;;;;5035418;28;20201;-70
2023/09/25 14:36:41;;;;;;;5.43;2.30;;;;;;;;;;5035834;28;20266;-70